Time;durP1;ratioP1;P1;durP2;ratioP2;P2;SDS_P1;SDS_P2;PMS_P1;PMS_P2;Temp;Humidity;BMP_temperature;BMP_pressure;BME280_temperature;BME280_humidity;BME280_pressure;Samples;Min_cycle;Max_cycle;Signal;HPM_P1;HPM_P2
2023/10/06 00:00:44;;;;;;;2.70;2.17;;;;;;;10.17;73.79;99991.94;5122830;27;42532;-80
2023/10/06 00:03:13;;;;;;;3.73;2.97;;;;;;;10.16;74.97;99992.00;5091428;28;42123;-79
2023/10/06 00:05:41;;;;;;;4.80;2.50;;;;;;;10.11;75.27;99976.34;5107290;27;38819;-80
2023/10/06 00:08:11;;;;;;;4.20;2.50;;;;;;;10.12;75.13;99978.06;5093855;28;41724;-79
2023/10/06 00:10:44;;;;;;;3.83;2.73;;;;;;;9.97;74.93;99960.19;5093623;28;42760;-80
2023/10/06 00:13:18;;;;;;;4.47;2.53;;;;;;;10.09;74.91;99983.47;5077564;28;41246;-80
2023/10/06 00:15:49;;;;;;;4.27;2.73;;;;;;;10.08;74.87;99995.00;5094657;28;39191;-80
2023/10/06 00:18:19;;;;;;;3.10;2.30;;;;;;;10.04;74.83;99988.97;5091687;28;41751;-80
2023/10/06 00:20:48;;;;;;;4.37;2.37;;;;;;;10.03;74.87;99989.88;5094263;28;42083;-79
2023/10/06 00:23:22;;;;;;;3.60;2.40;;;;;;;9.98;75.09;99975.13;5093900;28;41767;-80
2023/10/06 00:25:52;;;;;;;2.73;2.03;;;;;;;10.00;75.09;99989.16;5093474;28;40017;-80
2023/10/06 00:28:26;;;;;;;4.47;3.10;;;;;;;9.97;74.99;99989.28;5092488;28;41751;-81
2023/10/06 00:30:57;;;;;;;5.33;2.77;;;;;;;9.91;74.68;99978.94;5126977;27;42324;-80
2023/10/06 00:33:32;;;;;;;4.17;2.17;;;;;;;9.90;74.72;99985.16;5078223;28;41122;-81
2023/10/06 00:36:02;;;;;;;2.67;2.03;;;;;;;9.87;74.93;99991.47;5111263;28;38785;-81
2023/10/06 00:38:30;;;;;;;3.90;2.40;;;;;;;9.76;74.52;99977.81;5111234;28;40283;-80
2023/10/06 00:40:58;;;;;;;2.93;1.87;;;;;;;9.82;74.77;99996.06;5093840;28;42693;-80
2023/10/06 00:43:34;;;;;;;2.77;2.17;;;;;;;9.79;74.61;99992.69;5092341;28;42106;-81
2023/10/06 00:46:06;;;;;;;2.97;2.00;;;;;;;9.75;74.44;99983.19;5126447;27;39918;-81
2023/10/06 00:48:38;;;;;;;2.67;2.20;;;;;;;9.40;74.61;99935.19;5110045;28;40603;-80
2023/10/06 00:51:12;;;;;;;4.23;2.50;;;;;;;9.70;74.89;99978.91;5076032;28;41525;-81
2023/10/06 00:53:40;;;;;;;4.87;2.43;;;;;;;9.68;74.53;99972.81;5089709;28;43507;-81
2023/10/06 00:56:15;;;;;;;3.30;1.77;;;;;;;9.66;74.62;99968.53;5075900;28;38848;-80
2023/10/06 00:58:44;;;;;;;2.57;1.87;;;;;;;9.63;74.74;99974.81;5091006;28;41843;-81
2023/10/06 01:01:16;;;;;;;2.37;1.83;;;;;;;9.62;74.70;99972.22;5109788;28;41314;-80
2023/10/06 01:03:48;;;;;;;3.83;2.40;;;;;;;9.61;74.88;99981.94;5076149;28;41137;-80
2023/10/06 01:06:17;;;;;;;3.90;2.50;;;;;;;9.60;74.90;99972.28;5093034;28;39174;-82
2023/10/06 01:08:52;;;;;;;3.67;2.60;;;;;;;9.57;74.89;99966.25;5126698;27;41633;-81
2023/10/06 01:11:26;;;;;;;3.00;2.23;;;;;;;9.56;74.80;99968.03;5091870;28;42877;-80
2023/10/06 01:13:56;;;;;;;3.77;2.50;;;;;;;9.19;74.74;99912.28;5111038;28;41148;-80
2023/10/06 01:16:26;;;;;;;3.80;2.17;;;;;;;9.45;74.77;99959.69;5102719;28;40765;-80
2023/10/06 01:19:00;;;;;;;4.10;2.43;;;;;;;9.50;74.65;99973.59;5108542;28;41377;-80
2023/10/06 01:21:29;;;;;;;3.13;2.33;;;;;;;9.47;74.87;99963.13;5111161;28;42764;-81
2023/10/06 01:24:00;;;;;;;3.37;2.20;;;;;;;9.43;74.77;99966.81;5093435;28;42948;-80
2023/10/06 01:26:27;;;;;;;4.00;2.53;;;;;;;9.05;74.76;99906.69;5127305;27;40176;-81
2023/10/06 01:28:56;;;;;;;3.47;2.33;;;;;;;9.37;74.70;99959.16;5076493;28;40648;-81
2023/10/06 01:31:24;;;;;;;3.40;2.70;;;;;;;9.22;74.91;99933.31;5093212;28;43105;-80
2023/10/06 01:33:52;;;;;;;3.50;2.30;;;;;;;9.25;74.86;99944.63;5076690;28;41550;-80
2023/10/06 01:36:22;;;;;;;2.83;2.17;;;;;;;9.31;74.74;99954.09;5093761;28;39695;-81
2023/10/06 01:38:49;;;;;;;3.10;2.20;;;;;;;9.23;75.10;99943.81;5093217;28;41741;-80
2023/10/06 01:41:20;;;;;;;3.03;2.13;;;;;;;9.29;74.79;99969.13;5092688;28;41366;-80
2023/10/06 01:43:48;;;;;;;2.87;2.03;;;;;;;9.27;75.09;99960.44;5074694;28;41049;-80
2023/10/06 01:46:16;;;;;;;4.73;2.63;;;;;;;9.24;74.71;99955.25;5109512;28;38759;-80
2023/10/06 01:48:43;;;;;;;2.67;2.20;;;;;;;9.21;74.85;99960.66;5093280;28;41756;-80
2023/10/06 01:51:15;;;;;;;2.57;1.50;;;;;;;9.19;74.79;99963.34;5092360;28;43543;-81
2023/10/06 01:53:43;;;;;;;2.33;1.83;;;;;;;8.84;74.64;99913.66;5109514;28;41270;-80
2023/10/06 01:56:10;;;;;;;3.87;2.40;;;;;;;9.15;74.55;99966.19;5075161;28;38896;-81
2023/10/06 01:58:39;;;;;;;2.57;1.90;;;;;;;9.12;74.83;99963.66;5091850;28;42532;-80
2023/10/06 02:01:07;;;;;;;4.47;2.93;;;;;;;9.10;74.56;99962.88;5126160;27;43300;-81
2023/10/06 02:03:39;;;;;;;2.23;1.80;;;;;;;8.96;74.91;99934.31;5126334;27;42154;-80
2023/10/06 02:06:13;;;;;;;2.77;2.13;;;;;;;9.08;74.72;99960.28;5125026;27;39628;-80
2023/10/06 02:08:43;;;;;;;3.40;2.10;;;;;;;9.07;74.83;99965.63;5108877;28;40638;-80
2023/10/06 02:11:12;;;;;;;3.57;1.80;;;;;;;9.05;75.09;99962.16;5108694;28;43394;-80
2023/10/06 02:13:41;;;;;;;2.47;1.80;;;;;;;9.02;74.81;99963.19;5109681;28;40784;-81
2023/10/06 02:16:09;;;;;;;3.77;1.90;;;;;;;9.01;74.97;99966.72;5075750;28;38828;-80
2023/10/06 02:18:40;;;;;;;4.83;2.40;;;;;;;8.98;74.83;99959.78;5127175;27;41673;-80
2023/10/06 02:21:13;;;;;;;3.53;2.10;;;;;;;8.97;75.10;99958.06;5075524;28;41499;-80
2023/10/06 02:23:42;;;;;;;2.27;1.97;;;;;;;8.95;75.18;99962.53;5109338;28;42509;-80
2023/10/06 02:26:12;;;;;;;4.00;2.30;;;;;;;8.94;75.15;99952.88;5109492;28;40218;-81
2023/10/06 02:28:48;;;;;;;3.63;2.60;;;;;;;8.92;75.30;99952.06;5091791;28;42643;-80
2023/10/06 02:31:15;;;;;;;2.97;1.93;;;;;;;8.91;75.09;99955.63;5109585;28;42741;-80
2023/10/06 02:33:48;;;;;;;2.77;2.17;;;;;;;8.90;75.12;99956.53;5124601;27;43146;-80
2023/10/06 02:36:21;;;;;;;2.67;2.30;;;;;;;8.86;75.11;99960.25;5091584;28;38872;-80
2023/10/06 02:38:49;;;;;;;2.50;2.20;;;;;;;8.81;75.12;99959.53;5088231;28;41905;-81
2023/10/06 02:41:19;;;;;;;3.80;2.10;;;;;;;8.83;75.41;99964.78;5074016;28;43999;-80
2023/10/06 02:43:50;;;;;;;4.30;2.00;;;;;;;8.83;75.54;99963.00;5107892;28;43793;-80
2023/10/06 02:46:21;;;;;;;4.03;2.10;;;;;;;8.82;75.49;99958.63;5091208;28;40055;-81
2023/10/06 02:48:51;;;;;;;3.77;2.07;;;;;;;8.81;75.36;99962.19;5074350;28;42111;-80
2023/10/06 02:51:21;;;;;;;4.70;2.17;;;;;;;8.80;75.35;99955.19;5108100;28;41842;-81
2023/10/06 02:53:52;;;;;;;3.00;2.03;;;;;;;8.80;75.54;99957.81;5092125;28;43170;-82
2023/10/06 02:56:21;;;;;;;2.27;1.63;;;;;;;8.74;75.64;99950.16;5091475;28;38919;-80
2023/10/06 02:58:52;;;;;;;2.70;2.00;;;;;;;8.70;75.87;99945.03;5074167;28;41961;-81
2023/10/06 03:01:19;;;;;;;2.70;2.00;;;;;;;8.79;75.84;99953.44;5091406;28;42818;-80
2023/10/06 03:03:51;;;;;;;3.37;2.00;;;;;;;8.41;75.76;99903.84;5074134;28;40981;-80
2023/10/06 03:06:19;;;;;;;4.63;2.10;;;;;;;8.78;75.43;99961.47;5073667;28;40110;-81
2023/10/06 03:08:47;;;;;;;3.33;1.77;;;;;;;8.78;75.55;99959.66;5107749;28;41799;-80
2023/10/06 03:11:23;;;;;;;4.47;2.10;;;;;;;8.73;75.89;99948.41;5091796;28;42879;-81
2023/10/06 03:13:55;;;;;;;3.07;2.10;;;;;;;8.75;75.67;99945.72;5074801;28;41079;-80
2023/10/06 08:49:48;;;;;;;6.78;4.93;;;;;;;31.25;32.11;100119.19;5149526;27;20307;-83
2023/10/06 08:52:22;;;;;;;6.90;4.88;;;;;;;31.92;30.97;100124.91;5149516;27;39425;-84
2023/10/06 08:54:50;;;;;;;8.60;5.70;;;;;;;31.99;30.90;100122.22;5131080;27;41212;-84
2023/10/06 08:57:17;;;;;;;7.55;5.65;;;;;;;32.37;30.66;100115.22;5148098;27;43494;-83
2023/10/06 08:59:44;;;;;;;5.68;4.65;;;;;;;33.24;29.15;100121.72;5148484;27;40887;-83
2023/10/06 09:02:12;;;;;;;8.68;5.68;;;;;;;33.48;28.55;100115.56;5148274;27;39206;-83
2023/10/06 09:04:40;;;;;;;7.68;4.95;;;;;;;33.33;28.80;100117.69;5148384;27;41782;-83
2023/10/06 09:07:12;;;;;;;6.88;5.43;;;;;;;33.18;28.46;100113.22;5148409;27;42866;-82
2023/10/06 09:09:42;;;;;;;8.65;5.13;;;;;;;32.44;29.06;100096.88;5130948;27;42429;-82
2023/10/06 09:12:22;;;;;;;7.30;5.50;;;;;;;31.33;30.67;100095.22;5149658;27;39673;-83
2023/10/06 09:14:54;;;;;;;6.83;4.77;;;;;;;30.13;32.20;100077.84;5149297;27;42041;-83
2023/10/06 09:17:32;;;;;;;8.00;5.70;;;;;;;29.35;32.96;100075.66;5146421;27;43101;-83
2023/10/06 09:20:00;;;;;;;7.07;4.63;;;;;;;28.50;34.56;100050.50;5132218;27;41126;-83
2023/10/06 09:22:44;;;;;;;7.27;5.33;;;;;;;27.82;35.72;100052.06;5149003;27;38721;-83
2023/10/06 09:25:11;;;;;;;6.17;4.67;;;;;;;27.31;36.56;100048.03;5148956;27;42796;-83
2023/10/06 09:27:39;;;;;;;9.23;4.63;;;;;;;27.02;37.26;100043.13;5131473;27;42681;-82
2023/10/06 09:30:11;;;;;;;7.77;4.67;;;;;;;27.00;36.30;100036.16;5149195;27;40858;-82
2023/10/06 09:32:39;;;;;;;7.50;5.03;;;;;;;27.00;36.67;100033.44;5146730;27;40647;-82
2023/10/06 09:35:20;;;;;;;11.67;5.37;;;;;;;26.66;37.97;100015.47;5149280;27;41934;-82
2023/10/06 09:37:51;;;;;;;5.90;4.30;;;;;;;26.46;38.95;100016.81;5147495;27;42490;-82
2023/10/06 09:40:22;;;;;;;10.37;5.30;;;;;;;26.48;37.55;100025.63;5146952;27;42090;-82
2023/10/06 09:42:50;;;;;;;8.03;5.00;;;;;;;26.42;37.49;100029.03;5146747;27;38905;-82
2023/10/06 09:45:21;;;;;;;7.73;4.60;;;;;;;26.72;37.72;100025.63;5147688;27;42832;-82
2023/10/06 09:47:51;;;;;;;8.10;4.67;;;;;;;27.03;37.12;100022.25;5146851;27;42919;-82
2023/10/06 09:50:20;;;;;;;7.07;4.80;;;;;;;26.83;38.08;100006.25;5148955;27;42416;-82
2023/10/06 09:52:50;;;;;;;6.53;4.40;;;;;;;27.06;37.61;100016.47;5148556;27;40831;-82
2023/10/06 09:55:19;;;;;;;9.00;4.40;;;;;;;27.45;36.98;100006.44;5147385;27;42131;-83
2023/10/06 09:57:49;;;;;;;6.13;3.87;;;;;;;27.60;36.18;100003.88;5147416;27;42811;-83
2023/10/06 10:00:17;;;;;;;5.17;3.13;;;;;;;27.74;36.22;100013.16;5138332;27;43090;-83
2023/10/06 10:02:47;;;;;;;8.47;3.73;;;;;;;27.98;35.51;100002.13;5133617;27;40888;-83
2023/10/06 10:05:18;;;;;;;7.53;3.57;;;;;;;28.86;35.34;100007.13;5133745;27;40847;-82
2023/10/06 10:07:48;;;;;;;5.70;3.00;;;;;;;29.72;33.59;100011.09;5131079;27;42701;-83
2023/10/06 10:10:22;;;;;;;6.47;3.30;;;;;;;30.25;32.53;100031.72;5134422;27;42254;-83
2023/10/06 10:13:23;;;;;;;4.40;2.83;;;;;;;30.42;32.53;100024.09;5132681;27;40814;-82
2023/10/06 10:16:03;;;;;;;5.40;2.97;;;;;;;30.21;32.19;100012.13;5117595;27;42192;-83
2023/10/06 10:18:36;;;;;;;4.73;3.23;;;;;;;29.79;32.32;99979.28;5134574;27;42775;-83
2023/10/06 10:21:08;;;;;;;4.77;3.27;;;;;;;29.44;32.93;99976.28;5117496;27;41907;-82
2023/10/06 10:23:39;;;;;;;5.27;2.80;;;;;;;29.49;33.46;100016.69;5134448;27;40991;-83
2023/10/06 10:26:23;;;;;;;4.90;2.90;;;;;;;29.43;33.33;100010.09;5132650;27;41781;-82
2023/10/06 10:29:30;;;;;;;5.67;3.20;;;;;;;29.43;32.89;100004.63;5134634;27;43386;-82
2023/10/06 10:32:11;;;;;;;5.87;3.47;;;;;;;29.33;32.44;99979.47;5048985;28;42079;-83
2023/10/06 10:35:07;;;;;;;5.00;3.33;;;;;;;30.02;32.09;100004.56;5109483;27;40379;-83
2023/10/06 10:37:51;;;;;;;5.53;3.17;;;;;;;30.55;31.04;100016.03;5133857;27;41861;-82
2023/10/06 10:40:21;;;;;;;7.00;3.20;;;;;;;30.92;30.79;100023.09;5132320;27;42092;-83
2023/10/06 10:42:54;;;;;;;5.87;2.97;;;;;;;30.95;31.03;100018.06;5132241;27;42347;-83
2023/10/06 10:45:30;;;;;;;4.37;2.87;;;;;;;31.01;30.55;99994.53;5115726;27;39529;-80
2023/10/06 10:47:58;;;;;;;5.13;3.03;;;;;;;31.35;29.80;100005.53;5144984;27;41811;-81
2023/10/06 10:51:01;;;;;;;3.50;2.60;;;;;;;32.28;29.67;100014.13;5136887;27;41753;-82
2023/10/06 10:53:30;;;;;;;6.40;2.77;;;;;;;32.96;28.04;100021.19;5133203;27;42009;-81
2023/10/06 10:55:58;;;;;;;3.38;2.22;;;;;;;33.62;27.76;100022.97;5133276;27;41121;-82
2023/10/06 10:58:55;;;;;;;4.40;2.80;;;;;;;34.03;27.15;100014.34;5132659;27;40735;-83
2023/10/06 11:01:26;;;;;;;3.28;2.25;;;;;;;34.45;26.66;100007.34;5129870;27;43161;-82
2023/10/06 11:04:18;;;;;;;3.97;2.70;;;;;;;35.39;25.47;100009.06;5132149;27;41861;-82
2023/10/06 11:06:48;;;;;;;7.38;2.83;;;;;;;36.52;24.62;99996.31;5132485;27;38694;-83
2023/10/06 11:09:29;;;;;;;5.63;2.17;;;;;;;37.61;23.57;99969.03;5115354;27;41976;-82
2023/10/06 11:11:58;;;;;;;2.38;2.05;;;;;;;38.65;21.93;100002.91;5132067;27;41846;-82
2023/10/06 11:14:28;;;;;;;5.05;2.13;;;;;;;39.29;21.71;100009.78;5133617;27;41288;-83
2023/10/06 11:17:02;;;;;;;4.90;2.40;;;;;;;39.80;20.56;100007.69;5133732;27;39942;-83
2023/10/06 11:19:32;;;;;;;5.55;2.38;;;;;;;39.80;20.87;99982.72;5116434;27;40787;-83
2023/10/06 11:22:13;;;;;;;3.15;2.10;;;;;;;39.06;21.11;99988.66;5134562;27;42951;-83
2023/10/06 11:24:44;;;;;;;5.57;2.60;;;;;;;37.94;22.12;99974.75;5133335;27;41498;-83
2023/10/06 11:27:14;;;;;;;4.55;2.38;;;;;;;37.73;23.28;99967.97;5130232;27;40080;-83
2023/10/06 11:29:44;;;;;;;4.15;2.53;;;;;;;38.40;22.68;99973.69;5134827;27;41683;-83
2023/10/06 11:32:12;;;;;;;6.10;2.75;;;;;;;39.10;21.32;99939.94;5134541;27;42522;-83
2023/10/06 11:34:43;;;;;;;3.72;2.13;;;;;;;39.99;19.91;99977.69;5134343;27;42494;-83
2023/10/06 11:37:11;;;;;;;3.63;2.20;;;;;;;39.71;20.30;99974.00;5116035;27;38786;-84
2023/10/06 11:39:39;;;;;;;3.55;1.92;;;;;;;39.75;19.56;99941.88;5132016;27;42820;-83
2023/10/06 11:42:38;;;;;;;3.42;2.22;;;;;;;40.26;19.76;99966.56;5131605;27;42893;-83
2023/10/06 11:45:24;;;;;;;3.58;2.58;;;;;;;40.40;20.03;99948.41;5128756;27;42415;-82
2023/10/06 11:47:53;;;;;;;4.10;2.30;;;;;;;40.75;19.56;99951.50;5129456;27;40250;-83
2023/10/06 11:50:22;;;;;;;5.97;2.63;;;;;;;40.82;19.16;99957.66;5131832;27;41946;-83
2023/10/06 11:52:50;;;;;;;4.38;2.22;;;;;;;40.67;19.83;99943.63;5131975;27;42710;-83
2023/10/06 11:55:25;;;;;;;3.60;2.40;;;;;;;40.60;19.34;99942.19;5131461;27;41231;-83
2023/10/06 11:57:54;;;;;;;2.42;1.85;;;;;;;40.79;19.94;99922.09;5131589;27;40316;-83
2023/10/06 12:00:40;;;;;;;4.25;2.40;;;;;;;41.05;19.31;99948.06;5131883;27;41877;-84
2023/10/06 12:03:10;;;;;;;5.10;2.35;;;;;;;41.00;19.44;99941.66;5131419;27;43270;-83
2023/10/06 12:05:41;;;;;;;3.97;2.10;;;;;;;40.88;19.28;99939.91;5131295;27;43067;-84
2023/10/06 12:08:11;;;;;;;5.95;2.45;;;;;;;41.02;19.10;99923.59;5129676;27;39907;-83
2023/10/06 12:10:50;;;;;;;5.88;2.72;;;;;;;40.15;19.13;99918.47;5131653;27;42884;-83
2023/10/06 12:13:18;;;;;;;3.90;2.60;;;;;;;38.78;20.27;99912.03;5132057;27;43122;-83
2023/10/06 12:15:47;;;;;;;3.75;2.92;;;;;;;38.18;20.61;99902.72;5115151;27;43743;-82
2023/10/06 12:18:16;;;;;;;5.75;2.90;;;;;;;38.83;20.02;99899.31;5132435;27;40503;-83
2023/10/06 12:20:43;;;;;;;4.13;2.45;;;;;;;39.65;19.56;99918.75;5133814;27;41662;-84
2023/10/06 12:23:11;;;;;;;3.72;2.40;;;;;;;40.44;19.13;99916.22;5114566;27;43265;-83
2023/10/06 12:25:39;;;;;;;4.82;3.03;;;;;;;41.13;18.24;99924.53;5132554;27;42820;-83
2023/10/06 12:28:07;;;;;;;3.72;2.60;;;;;;;41.37;17.92;99884.03;5133404;27;39928;-84
2023/10/06 12:30:34;;;;;;;3.95;2.90;;;;;;;41.49;17.20;99904.09;5132397;27;42791;-83
2023/10/06 12:33:03;;;;;;;3.83;2.72;;;;;;;41.60;17.18;99902.22;5132146;27;41997;-83
2023/10/06 12:35:36;;;;;;;4.88;2.53;;;;;;;41.52;18.14;99888.81;5132318;27;42351;-83
2023/10/06 12:38:06;;;;;;;4.93;2.60;;;;;;;41.18;18.39;99877.28;5130048;27;39698;-82
2023/10/06 12:40:33;;;;;;;4.38;2.55;;;;;;;39.81;18.74;99878.97;5131951;27;41869;-83
2023/10/06 12:43:01;;;;;;;3.92;2.80;;;;;;;40.14;17.26;99892.63;5131855;27;42893;-84
2023/10/06 12:45:29;;;;;;;3.22;2.78;;;;;;;40.58;17.72;99889.66;5131017;27;42639;-83
2023/10/06 12:47:56;;;;;;;3.42;2.40;;;;;;;40.88;17.64;99889.06;5113389;27;39970;-84
2023/10/06 12:50:25;;;;;;;4.25;3.03;;;;;;;40.71;17.28;99883.69;5113888;27;41763;-83
2023/10/06 12:52:52;;;;;;;4.55;3.05;;;;;;;40.17;17.73;99886.56;5113431;27;43297;-83
2023/10/06 12:55:24;;;;;;;3.72;2.60;;;;;;;39.65;17.74;99891.00;5113347;27;40842;-83
2023/10/06 12:57:53;;;;;;;3.17;2.80;;;;;;;39.36;17.85;99870.97;5113196;27;40356;-83
2023/10/06 13:00:21;;;;;;;4.38;3.38;;;;;;;39.54;18.28;99872.59;5113364;27;40802;-84
2023/10/06 13:02:49;;;;;;;4.45;2.80;;;;;;;39.70;17.97;99860.53;5130576;27;42690;-83
2023/10/06 13:05:18;;;;;;;4.25;2.85;;;;;;;39.62;18.20;99859.09;5130652;27;42213;-83
2023/10/06 13:07:48;;;;;;;4.60;3.20;;;;;;;39.19;18.42;99854.44;5131639;27;40511;-83
2023/10/06 13:10:21;;;;;;;3.08;2.78;;;;;;;38.47;19.31;99862.75;5113115;27;42270;-83
2023/10/06 13:12:49;;;;;;;5.13;2.97;;;;;;;37.98;19.12;99848.66;5128717;27;43750;-83
2023/10/06 13:15:17;;;;;;;5.68;3.15;;;;;;;38.02;19.32;99843.47;5131781;27;43085;-82
2023/10/06 13:17:47;;;;;;;6.68;3.13;;;;;;;38.10;19.42;99830.06;5131704;27;40432;-82
2023/10/06 13:20:15;;;;;;;4.75;3.10;;;;;;;38.28;19.46;99847.53;5131524;27;42081;-82
2023/10/06 13:22:47;;;;;;;3.22;2.45;;;;;;;38.05;18.98;99843.81;5114047;27;43226;-82
2023/10/06 13:25:17;;;;;;;3.42;2.72;;;;;;;37.79;19.61;99838.09;5131517;27;41196;-82
2023/10/06 13:27:47;;;;;;;4.97;3.25;;;;;;;37.73;20.29;99837.16;5131102;27;41063;-82
2023/10/06 13:30:17;;;;;;;3.58;2.78;;;;;;;37.75;20.55;99826.69;5113350;27;41669;-82
2023/10/06 13:32:47;;;;;;;4.38;3.35;;;;;;;37.71;20.35;99822.75;5129052;27;43040;-83
2023/10/06 13:35:17;;;;;;;4.13;2.75;;;;;;;37.71;20.43;99808.94;5129860;27;42347;-82
2023/10/06 13:37:45;;;;;;;5.82;3.50;;;;;;;37.92;19.99;99829.47;5133892;27;40256;-83
2023/10/06 13:40:15;;;;;;;5.80;3.38;;;;;;;37.99;19.41;99825.44;5134865;27;43018;-82
2023/10/06 13:42:46;;;;;;;4.32;3.00;;;;;;;38.09;19.22;99816.50;5116192;27;43380;-82
2023/10/06 13:45:20;;;;;;;4.97;3.30;;;;;;;37.84;20.33;99794.75;5116080;27;43531;-82
2023/10/06 13:47:49;;;;;;;4.95;3.58;;;;;;;37.92;20.62;99804.59;5131990;27;40056;-83
2023/10/06 13:50:18;;;;;;;4.70;3.03;;;;;;;37.90;19.84;99807.59;5116455;27;41594;-82
2023/10/06 13:52:46;;;;;;;5.10;3.50;;;;;;;37.72;20.29;99805.06;5116213;27;41994;-84
2023/10/06 13:55:14;;;;;;;4.80;3.13;;;;;;;37.52;20.25;99790.84;5133477;27;42861;-82
2023/10/06 13:57:43;;;;;;;5.60;3.25;;;;;;;37.14;20.21;99748.09;5143321;27;40894;-82
2023/10/06 14:00:27;;;;;;;5.68;3.70;;;;;;;37.08;20.46;99776.72;5152798;27;40844;-83
2023/10/06 14:02:57;;;;;;;4.60;3.28;;;;;;;36.81;20.27;99778.38;5134615;27;42014;-83
2023/10/06 14:05:25;;;;;;;5.45;2.90;;;;;;;36.49;20.68;99773.22;5133345;27;41536;-81
2023/10/06 14:07:53;;;;;;;4.32;3.08;;;;;;;36.28;20.90;99779.38;5134539;27;40126;-83
2023/10/06 14:10:22;;;;;;;4.47;3.08;;;;;;;36.09;21.23;99761.25;5116406;27;41779;-82
2023/10/06 14:13:00;;;;;;;5.43;3.50;;;;;;;35.84;21.21;99767.84;5116079;27;43594;-82
2023/10/06 14:15:40;;;;;;;5.78;3.80;;;;;;;35.52;21.55;99752.63;5117335;27;42384;-82
2023/10/06 14:18:12;;;;;;;7.28;3.67;;;;;;;35.36;22.17;99750.56;5133599;27;40946;-82
2023/10/06 14:20:40;;;;;;;4.80;3.65;;;;;;;35.14;21.53;99742.78;5131288;27;42095;-82
2023/10/06 14:23:11;;;;;;;5.80;3.93;;;;;;;34.72;21.56;99746.53;5133807;27;42967;-82
2023/10/06 14:25:40;;;;;;;6.27;4.00;;;;;;;33.95;22.60;99748.81;5132318;27;43525;-83
2023/10/06 14:28:09;;;;;;;5.77;3.90;;;;;;;33.16;23.28;99739.19;5116626;27;39180;-82
2023/10/06 14:30:41;;;;;;;7.23;4.53;;;;;;;32.34;23.61;99720.75;5133842;27;42281;-83
2023/10/06 14:33:17;;;;;;;5.83;4.23;;;;;;;31.67;24.16;99721.03;5133305;27;43024;-82
2023/10/06 14:35:52;;;;;;;8.43;4.17;;;;;;;31.13;24.52;99721.19;5132215;27;42343;-82
2023/10/06 14:46:41;;;;;;;7.53;4.90;;;;;;;28.76;26.28;99721.06;5115468;27;44312;-81
2023/10/06 14:49:13;;;;;;;6.07;4.17;;;;;;;28.34;26.68;99723.63;5131617;27;40105;-83
2023/10/06 14:51:41;;;;;;;8.73;4.50;;;;;;;27.96;26.89;99720.97;5130452;27;42290;-83
2023/10/06 14:54:10;;;;;;;9.50;4.43;;;;;;;27.66;27.84;99708.38;5115073;27;43322;-82
2023/10/06 14:56:38;;;;;;;7.20;4.40;;;;;;;27.38;27.32;99718.94;5132577;27;41343;-81
2023/10/06 14:59:08;;;;;;;7.83;4.70;;;;;;;27.13;27.81;99723.72;5115453;27;39304;-80
2023/10/06 15:01:38;;;;;;;8.07;4.70;;;;;;;26.81;28.02;99720.19;5133614;27;43054;-81
2023/10/06 15:04:07;;;;;;;7.37;4.63;;;;;;;26.54;28.04;99717.09;5115280;27;41946;-81
2023/10/06 15:06:36;;;;;;;7.03;4.40;;;;;;;26.28;28.68;99717.38;5115137;27;41573;-83
2023/10/06 15:09:08;;;;;;;6.53;4.37;;;;;;;25.97;28.94;99699.09;5132136;27;40808;-81
2023/10/06 15:11:40;;;;;;;9.93;4.07;;;;;;;25.78;29.42;99715.78;5129162;27;41727;-81
2023/10/06 15:14:10;;;;;;;7.33;4.13;;;;;;;25.57;29.80;99715.44;5133676;27;43071;-82
2023/10/06 15:16:38;;;;;;;5.77;3.47;;;;;;;25.36;30.69;99705.94;5133676;27;42780;-84
2023/10/06 15:19:07;;;;;;;6.50;4.23;;;;;;;25.14;30.80;99694.91;5116048;27;39481;-82
2023/10/06 15:21:39;;;;;;;7.67;3.90;;;;;;;24.95;31.15;99696.09;5133150;27;42734;-83
2023/10/06 15:24:10;;;;;;;6.90;3.87;;;;;;;24.75;31.32;99683.81;5115709;27;42206;-83
2023/10/06 15:26:42;;;;;;;7.17;3.63;;;;;;;24.45;31.88;99655.47;5130635;27;42835;-82
2023/10/06 15:29:10;;;;;;;7.70;3.70;;;;;;;24.24;32.16;99636.94;5116209;27;39062;-82
2023/10/06 15:31:37;;;;;;;5.97;3.63;;;;;;;24.30;32.81;99668.81;5134021;27;42207;-83
2023/10/06 15:34:05;;;;;;;6.00;4.00;;;;;;;24.12;33.00;99668.00;5113403;27;42080;-83
2023/10/06 15:36:35;;;;;;;5.33;3.37;;;;;;;23.92;32.90;99652.03;5114915;27;42618;-83
2023/10/06 15:39:16;;;;;;;7.00;4.07;;;;;;;23.90;33.57;99655.91;5131752;27;39710;-83
2023/10/06 15:41:45;;;;;;;7.43;3.60;;;;;;;23.78;33.95;99660.75;5128958;27;41894;-80
2023/10/06 15:44:13;;;;;;;8.77;4.07;;;;;;;23.65;33.82;99652.22;5131254;27;41678;-81
2023/10/06 15:46:41;;;;;;;7.60;4.53;;;;;;;23.56;34.53;99653.19;5131716;27;42804;-82
2023/10/06 15:49:11;;;;;;;5.63;3.27;;;;;;;23.42;34.51;99645.59;5130989;27;40214;-84
2023/10/06 15:51:42;;;;;;;6.13;3.90;;;;;;;23.23;34.23;99636.69;5131492;27;43215;-80
2023/10/06 15:54:10;;;;;;;7.03;4.30;;;;;;;23.14;34.41;99647.59;5131774;27;41716;-83
2023/10/06 15:56:39;;;;;;;6.67;3.93;;;;;;;23.03;34.40;99645.13;5114467;27;42020;-81
2023/10/06 15:59:13;;;;;;;6.83;3.70;;;;;;;22.79;34.80;99627.69;5131078;27;39998;-84
2023/10/06 16:01:41;;;;;;;6.33;3.93;;;;;;;22.73;34.92;99643.66;5131543;27;40845;-82
2023/10/06 16:04:08;;;;;;;7.03;4.30;;;;;;;22.57;35.49;99645.19;5131418;27;43977;-82
2023/10/06 16:06:37;;;;;;;6.10;3.90;;;;;;;22.32;36.17;99623.47;5133008;27;43045;-83
2023/10/06 16:09:07;;;;;;;7.73;4.40;;;;;;;22.20;36.21;99625.53;5131317;27;39104;-82
2023/10/06 16:11:36;;;;;;;7.47;3.70;;;;;;;22.04;36.49;99626.19;5132895;27;42302;-81
2023/10/06 16:14:05;;;;;;;6.63;4.00;;;;;;;21.94;36.58;99624.50;5133771;27;42951;-80
2023/10/06 16:16:35;;;;;;;9.37;4.33;;;;;;;21.88;36.64;99642.97;5133633;27;42428;-82
2023/10/06 16:19:04;;;;;;;9.40;4.80;;;;;;;21.74;36.77;99635.41;5114462;27;40103;-81
2023/10/06 16:21:33;;;;;;;9.23;4.10;;;;;;;21.62;36.88;99638.41;5113568;27;42122;-82
2023/10/06 16:24:01;;;;;;;9.10;4.30;;;;;;;21.37;37.00;99612.97;5113780;27;41721;-81
2023/10/06 16:26:30;;;;;;;7.20;3.60;;;;;;;21.35;37.03;99634.66;5114361;27;40827;-80
2023/10/06 16:28:58;;;;;;;9.87;4.53;;;;;;;21.16;37.62;99627.41;5131305;27;40215;-80
2023/10/06 16:31:26;;;;;;;8.07;4.70;;;;;;;21.07;37.65;99630.97;5131412;27;42248;-81
2023/10/06 16:33:55;;;;;;;7.30;3.97;;;;;;;20.95;37.70;99634.81;5131252;27;44016;-81
2023/10/06 16:36:22;;;;;;;5.50;3.73;;;;;;;20.81;38.30;99629.84;5114192;27;41270;-81
2023/10/06 16:38:50;;;;;;;6.23;3.93;;;;;;;20.70;38.24;99638.06;5113861;27;39002;-80
2023/10/06 16:41:21;;;;;;;8.67;5.00;;;;;;;20.59;38.63;99638.22;5131578;27;42713;-82
2023/10/06 16:43:55;;;;;;;8.43;4.53;;;;;;;20.43;38.55;99634.22;5113728;27;42945;-82
2023/10/06 16:46:22;;;;;;;8.97;4.50;;;;;;;20.33;39.00;99621.72;5128325;27;42086;-79
2023/10/06 16:48:50;;;;;;;9.30;4.60;;;;;;;20.26;39.18;99628.66;5113463;27;40303;-82
2023/10/06 16:51:19;;;;;;;9.23;4.90;;;;;;;20.15;39.69;99621.56;5114371;27;41309;-82
2023/10/06 16:53:48;;;;;;;8.00;4.27;;;;;;;19.97;39.77;99599.00;5113746;27;43131;-79
2023/10/06 16:56:15;;;;;;;8.33;4.83;;;;;;;19.92;39.72;99614.66;5113873;27;42686;-82
2023/10/06 16:58:43;;;;;;;9.20;5.10;;;;;;;19.76;39.85;99592.84;5130652;27;39975;-82
2023/10/06 17:01:11;;;;;;;8.00;4.93;;;;;;;19.87;40.01;99617.78;5132110;27;41813;-80
2023/10/06 17:03:39;;;;;;;9.47;4.63;;;;;;;19.43;39.96;99559.84;5131886;27;42852;-82
2023/10/06 17:06:11;;;;;;;8.37;5.20;;;;;;;19.78;40.12;99639.25;5131303;27;41582;-82
2023/10/06 17:08:38;;;;;;;9.93;4.90;;;;;;;19.73;40.18;99636.97;5130843;27;39281;-83
2023/10/06 17:11:11;;;;;;;7.67;4.20;;;;;;;19.65;40.48;99628.75;5144807;27;40456;-80
2023/10/06 17:13:39;;;;;;;10.50;5.07;;;;;;;19.60;40.25;99631.81;5133856;27;43637;-84
2023/10/06 17:16:06;;;;;;;7.47;4.23;;;;;;;19.53;40.36;99630.66;5135931;27;42535;-81
2023/10/06 17:18:36;;;;;;;7.83;4.40;;;;;;;19.17;40.45;99583.59;5135793;27;40710;-82
2023/10/06 17:21:06;;;;;;;7.80;4.53;;;;;;;19.28;40.53;99610.41;5118543;27;42125;-80
2023/10/06 17:23:34;;;;;;;8.07;4.40;;;;;;;19.33;40.88;99634.16;5135063;27;42628;-80
2023/10/06 17:26:02;;;;;;;8.33;4.53;;;;;;;19.18;40.65;99622.06;5135535;27;42172;-81
2023/10/06 17:28:30;;;;;;;8.90;4.80;;;;;;;19.18;41.22;99630.09;5134796;27;39913;-82
2023/10/06 17:31:01;;;;;;;8.70;4.27;;;;;;;19.10;41.70;99632.59;5135743;27;42066;-81
2023/10/06 17:33:29;;;;;;;10.80;4.83;;;;;;;19.04;42.45;99633.16;5133800;27;42664;-80